sensor_id;sensor_type;location;lat;lon;timestamp;temperature;humidity
44477;DHT22;30180;44.788;10.366;2022-10-15T00:01:32;20.70;70.20
44477;DHT22;30180;44.788;10.366;2022-10-15T00:04:02;20.70;70.20
44477;DHT22;30180;44.788;10.366;2022-10-15T00:06:30;20.70;70.20
44477;DHT22;30180;44.788;10.366;2022-10-15T00:08:59;20.70;70.20
44477;DHT22;30180;44.788;10.366;2022-10-15T00:11:27;20.70;70.20
44477;DHT22;30180;44.788;10.366;2022-10-15T00:13:57;20.70;70.20
44477;DHT22;30180;44.788;10.366;2022-10-15T00:16:27;20.70;70.20
44477;DHT22;30180;44.788;10.366;2022-10-15T00:18:56;20.70;70.20
44477;DHT22;30180;44.788;10.366;2022-10-15T00:21:26;20.70;70.20
44477;DHT22;30180;44.788;10.366;2022-10-15T00:23:55;20.70;70.20
44477;DHT22;30180;44.788;10.366;2022-10-15T00:26:25;20.70;70.30
44477;DHT22;30180;44.788;10.366;2022-10-15T00:28:56;20.70;70.30
44477;DHT22;30180;44.788;10.366;2022-10-15T00:31:26;20.80;70.30
44477;DHT22;30180;44.788;10.366;2022-10-15T00:33:56;20.80;70.30
44477;DHT22;30180;44.788;10.366;2022-10-15T00:36:27;20.70;70.30
44477;DHT22;30180;44.788;10.366;2022-10-15T00:38:56;20.70;70.30
44477;DHT22;30180;44.788;10.366;2022-10-15T00:41:29;20.70;70.90
44477;DHT22;30180;44.788;10.366;2022-10-15T00:43:58;20.80;70.40
44477;DHT22;30180;44.788;10.366;2022-10-15T00:46:30;20.70;70.30
44477;DHT22;30180;44.788;10.366;2022-10-15T00:49:04;20.70;70.30
44477;DHT22;30180;44.788;10.366;2022-10-15T00:51:41;20.70;70.30
44477;DHT22;30180;44.788;10.366;2022-10-15T00:54:10;20.70;70.30
44477;DHT22;30180;44.788;10.366;2022-10-15T00:56:39;20.70;70.30
44477;DHT22;30180;44.788;10.366;2022-10-15T00:59:09;20.70;70.30
44477;DHT22;30180;44.788;10.366;2022-10-15T01:01:39;20.70;70.30
44477;DHT22;30180;44.788;10.366;2022-10-15T01:04:07;20.70;70.30
44477;DHT22;30180;44.788;10.366;2022-10-15T01:06:37;20.70;70.30
44477;DHT22;30180;44.788;10.366;2022-10-15T01:09:06;20.70;70.30
44477;DHT22;30180;44.788;10.366;2022-10-15T01:11:39;20.70;70.30
44477;DHT22;30180;44.788;10.366;2022-10-15T01:14:24;20.70;70.30
44477;DHT22;30180;44.788;10.366;2022-10-15T01:16:57;20.70;70.30
44477;DHT22;30180;44.788;10.366;2022-10-15T01:19:45;20.70;70.40
44477;DHT22;30180;44.788;10.366;2022-10-15T01:22:24;20.70;70.30
44477;DHT22;30180;44.788;10.366;2022-10-15T01:25:09;20.70;70.40
44477;DHT22;30180;44.788;10.366;2022-10-15T01:27:41;20.70;70.40
44477;DHT22;30180;44.788;10.366;2022-10-15T01:30:20;20.70;70.30
44477;DHT22;30180;44.788;10.366;2022-10-15T01:33:13;20.70;70.30
44477;DHT22;30180;44.788;10.366;2022-10-15T01:35:47;20.70;70.40
44477;DHT22;30180;44.788;10.366;2022-10-15T01:38:29;20.70;70.40
44477;DHT22;30180;44.788;10.366;2022-10-15T01:41:05;20.70;70.40
44477;DHT22;30180;44.788;10.366;2022-10-15T01:43:37;20.70;70.40
44477;DHT22;30180;44.788;10.366;2022-10-15T01:46:13;20.70;70.40
44477;DHT22;30180;44.788;10.366;2022-10-15T01:48:42;20.70;70.40
44477;DHT22;30180;44.788;10.366;2022-10-15T01:51:12;20.70;70.40
44477;DHT22;30180;44.788;10.366;2022-10-15T01:53:43;20.70;70.40
44477;DHT22;30180;44.788;10.366;2022-10-15T01:56:16;20.70;70.40
44477;DHT22;30180;44.788;10.366;2022-10-15T01:58:46;20.70;71.00
44477;DHT22;30180;44.788;10.366;2022-10-15T02:01:17;20.70;70.40
44477;DHT22;30180;44.788;10.366;2022-10-15T02:03:46;20.70;70.40
44477;DHT22;30180;44.788;10.366;2022-10-15T02:06:19;20.70;70.40
44477;DHT22;30180;44.788;10.366;2022-10-15T02:08:57;20.70;70.40
44477;DHT22;30180;44.788;10.366;2022-10-15T02:11:26;20.70;70.40
44477;DHT22;30180;44.788;10.366;2022-10-15T02:13:59;20.70;70.40
44477;DHT22;30180;44.788;10.366;2022-10-15T02:16:37;20.70;70.40
44477;DHT22;30180;44.788;10.366;2022-10-15T02:19:13;20.70;70.40
44477;DHT22;30180;44.788;10.366;2022-10-15T02:21:46;20.70;70.40
44477;DHT22;30180;44.788;10.366;2022-10-15T02:24:19;20.70;70.40
44477;DHT22;30180;44.788;10.366;2022-10-15T02:26:51;20.70;70.40
44477;DHT22;30180;44.788;10.366;2022-10-15T02:29:22;20.70;70.40
44477;DHT22;30180;44.788;10.366;2022-10-15T02:31:53;20.70;70.40
44477;DHT22;30180;44.788;10.366;2022-10-15T02:34:28;20.70;70.40
44477;DHT22;30180;44.788;10.366;2022-10-15T02:36:59;20.70;70.40
44477;DHT22;30180;44.788;10.366;2022-10-15T02:39:28;20.70;70.40
44477;DHT22;30180;44.788;10.366;2022-10-15T02:41:57;20.70;70.40
44477;DHT22;30180;44.788;10.366;2022-10-15T02:44:25;20.70;70.40
44477;DHT22;30180;44.788;10.366;2022-10-15T02:46:55;20.70;70.40
44477;DHT22;30180;44.788;10.366;2022-10-15T02:49:24;20.70;70.40
44477;DHT22;30180;44.788;10.366;2022-10-15T02:51:52;20.70;70.40
44477;DHT22;30180;44.788;10.366;2022-10-15T02:54:20;20.70;70.40
44477;DHT22;30180;44.788;10.366;2022-10-15T02:56:48;20.70;70.40
44477;DHT22;30180;44.788;10.366;2022-10-15T02:59:16;20.60;70.40
44477;DHT22;30180;44.788;10.366;2022-10-15T03:01:45;20.70;70.40
44477;DHT22;30180;44.788;10.366;2022-10-15T03:04:15;20.70;70.40
44477;DHT22;30180;44.788;10.366;2022-10-15T03:06:43;20.70;70.40
44477;DHT22;30180;44.788;10.366;2022-10-15T03:09:11;20.70;70.40
44477;DHT22;30180;44.788;10.366;2022-10-15T03:11:39;20.70;70.40
44477;DHT22;30180;44.788;10.366;2022-10-15T03:14:07;20.70;70.40
44477;DHT22;30180;44.788;10.366;2022-10-15T03:16:35;20.70;70.40
44477;DHT22;30180;44.788;10.366;2022-10-15T03:19:03;20.70;70.40
44477;DHT22;30180;44.788;10.366;2022-10-15T03:21:33;20.70;70.40
44477;DHT22;30180;44.788;10.366;2022-10-15T03:24:01;20.70;70.40
44477;DHT22;30180;44.788;10.366;2022-10-15T03:26:29;20.60;70.40
44477;DHT22;30180;44.788;10.366;2022-10-15T03:28:57;20.70;70.40
44477;DHT22;30180;44.788;10.366;2022-10-15T03:31:25;20.70;70.40
44477;DHT22;30180;44.788;10.366;2022-10-15T03:33:54;20.70;70.50
44477;DHT22;30180;44.788;10.366;2022-10-15T03:36:22;20.70;70.40
44477;DHT22;30180;44.788;10.366;2022-10-15T03:38:52;20.70;70.50
44477;DHT22;30180;44.788;10.366;2022-10-15T03:41:20;20.70;70.40
44477;DHT22;30180;44.788;10.366;2022-10-15T03:43:48;20.70;70.40
44477;DHT22;30180;44.788;10.366;2022-10-15T03:46:16;20.70;70.40
44477;DHT22;30180;44.788;10.366;2022-10-15T03:48:47;20.60;70.40
44477;DHT22;30180;44.788;10.366;2022-10-15T03:51:15;20.60;70.40
44477;DHT22;30180;44.788;10.366;2022-10-15T03:53:52;20.60;70.40
44477;DHT22;30180;44.788;10.366;2022-10-15T03:56:20;20.60;70.40
44477;DHT22;30180;44.788;10.366;2022-10-15T03:58:49;20.60;70.40
44477;DHT22;30180;44.788;10.366;2022-10-15T04:01:17;20.60;70.40
44477;DHT22;30180;44.788;10.366;2022-10-15T04:03:45;20.60;70.40
44477;DHT22;30180;44.788;10.366;2022-10-15T04:06:13;20.60;70.40
44477;DHT22;30180;44.788;10.366;2022-10-15T04:08:42;20.70;70.40
44477;DHT22;30180;44.788;10.366;2022-10-15T04:11:11;20.60;70.40
44477;DHT22;30180;44.788;10.366;2022-10-15T04:13:39;20.60;70.40
44477;DHT22;30180;44.788;10.366;2022-10-15T04:16:08;20.70;70.40
44477;DHT22;30180;44.788;10.366;2022-10-15T04:18:36;20.60;70.40
44477;DHT22;30180;44.788;10.366;2022-10-15T04:21:04;20.60;70.40
44477;DHT22;30180;44.788;10.366;2022-10-15T04:23:32;20.70;70.50
44477;DHT22;30180;44.788;10.366;2022-10-15T04:26:00;20.60;70.40
44477;DHT22;30180;44.788;10.366;2022-10-15T04:28:30;20.60;70.40
44477;DHT22;30180;44.788;10.366;2022-10-15T04:30:59;20.70;70.50
44477;DHT22;30180;44.788;10.366;2022-10-15T04:33:28;20.70;70.40
44477;DHT22;30180;44.788;10.366;2022-10-15T04:36:00;20.60;70.40
44477;DHT22;30180;44.788;10.366;2022-10-15T04:38:29;20.60;70.40
44477;DHT22;30180;44.788;10.366;2022-10-15T04:40:58;20.60;70.40
44477;DHT22;30180;44.788;10.366;2022-10-15T04:43:28;20.60;70.40
44477;DHT22;30180;44.788;10.366;2022-10-15T04:45:58;20.60;70.40
44477;DHT22;30180;44.788;10.366;2022-10-15T04:48:28;20.70;70.50
44477;DHT22;30180;44.788;10.366;2022-10-15T04:51:03;20.60;70.40
44477;DHT22;30180;44.788;10.366;2022-10-15T04:53:31;20.60;70.40
44477;DHT22;30180;44.788;10.366;2022-10-15T04:56:01;20.60;70.40
44477;DHT22;30180;44.788;10.366;2022-10-15T04:58:30;20.60;70.40
44477;DHT22;30180;44.788;10.366;2022-10-15T05:01:01;20.60;70.40
44477;DHT22;30180;44.788;10.366;2022-10-15T05:03:29;20.60;70.40
44477;DHT22;30180;44.788;10.366;2022-10-15T05:05:59;20.60;70.40
44477;DHT22;30180;44.788;10.366;2022-10-15T05:08:28;20.60;70.40
44477;DHT22;30180;44.788;10.366;2022-10-15T05:10:59;20.70;70.50
44477;DHT22;30180;44.788;10.366;2022-10-15T05:13:29;20.60;70.40
44477;DHT22;30180;44.788;10.366;2022-10-15T05:16:09;20.60;70.40
44477;DHT22;30180;44.788;10.366;2022-10-15T05:18:38;20.70;70.50
44477;DHT22;30180;44.788;10.366;2022-10-15T05:21:06;20.60;70.40
44477;DHT22;30180;44.788;10.366;2022-10-15T05:23:35;20.60;70.40
44477;DHT22;30180;44.788;10.366;2022-10-15T05:26:05;20.60;70.50
44477;DHT22;30180;44.788;10.366;2022-10-15T05:28:34;20.60;70.40
44477;DHT22;30180;44.788;10.366;2022-10-15T05:31:04;20.60;70.40
44477;DHT22;30180;44.788;10.366;2022-10-15T05:33:34;20.60;70.40
44477;DHT22;30180;44.788;10.366;2022-10-15T05:36:09;20.60;70.40
44477;DHT22;30180;44.788;10.366;2022-10-15T05:38:38;20.60;70.40
44477;DHT22;30180;44.788;10.366;2022-10-15T05:41:07;20.60;70.40
44477;DHT22;30180;44.788;10.366;2022-10-15T05:43:35;20.60;70.40
44477;DHT22;30180;44.788;10.366;2022-10-15T05:46:07;20.60;70.40
44477;DHT22;30180;44.788;10.366;2022-10-15T05:48:37;20.60;70.40
44477;DHT22;30180;44.788;10.366;2022-10-15T05:51:07;20.60;70.40
44477;DHT22;30180;44.788;10.366;2022-10-15T05:53:35;20.60;70.40
44477;DHT22;30180;44.788;10.366;2022-10-15T05:56:05;20.60;70.40
44477;DHT22;30180;44.788;10.366;2022-10-15T05:58:34;20.60;70.40
44477;DHT22;30180;44.788;10.366;2022-10-15T06:01:06;20.60;70.40
44477;DHT22;30180;44.788;10.366;2022-10-15T06:03:34;20.60;70.50
44477;DHT22;30180;44.788;10.366;2022-10-15T06:06:04;20.60;70.50
44477;DHT22;30180;44.788;10.366;2022-10-15T06:08:32;20.70;70.60
44477;DHT22;30180;44.788;10.366;2022-10-15T06:11:03;20.60;70.50
44477;DHT22;30180;44.788;10.366;2022-10-15T06:13:37;20.60;70.50
44477;DHT22;30180;44.788;10.366;2022-10-15T06:16:05;20.60;70.50
44477;DHT22;30180;44.788;10.366;2022-10-15T06:18:34;20.60;70.50
44477;DHT22;30180;44.788;10.366;2022-10-15T06:21:04;20.60;70.50
44477;DHT22;30180;44.788;10.366;2022-10-15T06:23:33;20.60;70.50
44477;DHT22;30180;44.788;10.366;2022-10-15T06:26:02;20.60;70.50
44477;DHT22;30180;44.788;10.366;2022-10-15T06:28:31;20.60;70.50
44477;DHT22;30180;44.788;10.366;2022-10-15T06:30:59;20.60;70.50
44477;DHT22;30180;44.788;10.366;2022-10-15T06:33:28;20.60;70.50
44477;DHT22;30180;44.788;10.366;2022-10-15T06:35:59;20.60;70.50
44477;DHT22;30180;44.788;10.366;2022-10-15T06:38:30;20.60;70.50
44477;DHT22;30180;44.788;10.366;2022-10-15T06:40:58;20.60;70.50
44477;DHT22;30180;44.788;10.366;2022-10-15T06:43:26;20.60;70.50
44477;DHT22;30180;44.788;10.366;2022-10-15T06:45:59;20.60;70.50
44477;DHT22;30180;44.788;10.366;2022-10-15T06:48:27;20.60;70.50
44477;DHT22;30180;44.788;10.366;2022-10-15T06:50:57;20.60;70.50
44477;DHT22;30180;44.788;10.366;2022-10-15T06:53:26;20.60;70.50
44477;DHT22;30180;44.788;10.366;2022-10-15T06:56:01;20.60;70.50
44477;DHT22;30180;44.788;10.366;2022-10-15T06:58:29;20.60;70.50
44477;DHT22;30180;44.788;10.366;2022-10-15T07:01:01;20.60;70.50
44477;DHT22;30180;44.788;10.366;2022-10-15T07:03:29;20.60;70.50
44477;DHT22;30180;44.788;10.366;2022-10-15T07:06:00;20.60;70.50
44477;DHT22;30180;44.788;10.366;2022-10-15T07:08:29;20.60;70.50
44477;DHT22;30180;44.788;10.366;2022-10-15T07:10:59;20.60;70.50
44477;DHT22;30180;44.788;10.366;2022-10-15T07:13:28;20.60;70.50
44477;DHT22;30180;44.788;10.366;2022-10-15T07:15:56;20.60;70.50
44477;DHT22;30180;44.788;10.366;2022-10-15T07:18:24;20.70;70.60
44477;DHT22;30180;44.788;10.366;2022-10-15T07:20:52;20.60;70.60
44477;DHT22;30180;44.788;10.366;2022-10-15T07:23:21;20.60;70.60
44477;DHT22;30180;44.788;10.366;2022-10-15T07:25:53;20.60;70.60
44477;DHT22;30180;44.788;10.366;2022-10-15T07:28:23;20.60;70.50
44477;DHT22;30180;44.788;10.366;2022-10-15T07:30:51;20.60;70.50
44477;DHT22;30180;44.788;10.366;2022-10-15T07:33:20;20.60;70.50
44477;DHT22;30180;44.788;10.366;2022-10-15T07:35:48;20.60;70.60
44477;DHT22;30180;44.788;10.366;2022-10-15T07:38:16;20.60;70.60
44477;DHT22;30180;44.788;10.366;2022-10-15T07:40:44;20.60;70.60
44477;DHT22;30180;44.788;10.366;2022-10-15T07:43:13;20.60;70.60
44477;DHT22;30180;44.788;10.366;2022-10-15T07:45:46;20.60;70.50
44477;DHT22;30180;44.788;10.366;2022-10-15T07:48:15;20.60;70.40
44477;DHT22;30180;44.788;10.366;2022-10-15T07:50:43;20.60;70.40
44477;DHT22;30180;44.788;10.366;2022-10-15T07:53:11;20.60;70.40
44477;DHT22;30180;44.788;10.366;2022-10-15T07:55:42;20.50;70.40
44477;DHT22;30180;44.788;10.366;2022-10-15T07:58:10;20.60;70.40
44477;DHT22;30180;44.788;10.366;2022-10-15T08:00:38;20.50;70.40
44477;DHT22;30180;44.788;10.366;2022-10-15T08:03:08;20.50;70.40
44477;DHT22;30180;44.788;10.366;2022-10-15T08:05:36;20.50;70.40
44477;DHT22;30180;44.788;10.366;2022-10-15T08:08:04;20.50;70.40
44477;DHT22;30180;44.788;10.366;2022-10-15T08:10:32;20.50;71.00
44477;DHT22;30180;44.788;10.366;2022-10-15T08:13:00;20.50;70.40
44477;DHT22;30180;44.788;10.366;2022-10-15T08:15:28;20.50;70.40
44477;DHT22;30180;44.788;10.366;2022-10-15T08:17:58;20.50;70.40
44477;DHT22;30180;44.788;10.366;2022-10-15T08:20:27;20.50;70.50
44477;DHT22;30180;44.788;10.366;2022-10-15T08:22:56;20.50;70.40
44477;DHT22;30180;44.788;10.366;2022-10-15T08:25:24;20.50;70.40
44477;DHT22;30180;44.788;10.366;2022-10-15T08:27:52;20.50;70.40
44477;DHT22;30180;44.788;10.366;2022-10-15T08:30:21;20.50;70.40
44477;DHT22;30180;44.788;10.366;2022-10-15T08:32:49;20.50;70.40
44477;DHT22;30180;44.788;10.366;2022-10-15T08:35:17;20.50;70.40
44477;DHT22;30180;44.788;10.366;2022-10-15T08:37:46;20.50;70.40
44477;DHT22;30180;44.788;10.366;2022-10-15T08:40:15;20.50;70.40
44477;DHT22;30180;44.788;10.366;2022-10-15T08:42:45;20.50;70.30
44477;DHT22;30180;44.788;10.366;2022-10-15T08:45:16;20.50;70.30
44477;DHT22;30180;44.788;10.366;2022-10-15T08:47:49;20.50;70.30
44477;DHT22;30180;44.788;10.366;2022-10-15T08:50:25;20.50;70.30
44477;DHT22;30180;44.788;10.366;2022-10-15T08:52:56;20.50;70.30
44477;DHT22;30180;44.788;10.366;2022-10-15T08:55:30;20.50;71.00
44477;DHT22;30180;44.788;10.366;2022-10-15T08:58:05;20.50;70.30
44477;DHT22;30180;44.788;10.366;2022-10-15T09:00:42;20.50;70.30
44477;DHT22;30180;44.788;10.366;2022-10-15T09:03:24;20.50;70.30
44477;DHT22;30180;44.788;10.366;2022-10-15T09:06:02;20.50;70.30
44477;DHT22;30180;44.788;10.366;2022-10-15T09:08:39;20.50;70.30
44477;DHT22;30180;44.788;10.366;2022-10-15T09:11:15;20.50;70.30
44477;DHT22;30180;44.788;10.366;2022-10-15T09:13:45;20.50;70.30
44477;DHT22;30180;44.788;10.366;2022-10-15T09:16:17;20.50;70.30
44477;DHT22;30180;44.788;10.366;2022-10-15T09:18:47;20.50;70.30
44477;DHT22;30180;44.788;10.366;2022-10-15T09:21:15;20.50;70.30
44477;DHT22;30180;44.788;10.366;2022-10-15T09:23:45;20.50;70.30
44477;DHT22;30180;44.788;10.366;2022-10-15T09:26:21;20.50;70.30
44477;DHT22;30180;44.788;10.366;2022-10-15T09:28:58;20.50;70.30
44477;DHT22;30180;44.788;10.366;2022-10-15T09:31:33;20.50;70.30
44477;DHT22;30180;44.788;10.366;2022-10-15T09:34:06;20.50;70.30
44477;DHT22;30180;44.788;10.366;2022-10-15T09:36:40;20.50;70.30
44477;DHT22;30180;44.788;10.366;2022-10-15T09:39:25;20.50;70.30
44477;DHT22;30180;44.788;10.366;2022-10-15T09:42:01;20.50;70.30
44477;DHT22;30180;44.788;10.366;2022-10-15T09:44:36;20.50;70.30
44477;DHT22;30180;44.788;10.366;2022-10-15T09:47:14;20.50;70.90
44477;DHT22;30180;44.788;10.366;2022-10-15T09:49:43;20.50;70.30
44477;DHT22;30180;44.788;10.366;2022-10-15T09:52:18;20.50;70.30
44477;DHT22;30180;44.788;10.366;2022-10-15T09:54:58;20.50;70.30
44477;DHT22;30180;44.788;10.366;2022-10-15T09:57:30;20.50;70.30
44477;DHT22;30180;44.788;10.366;2022-10-15T10:00:03;20.50;70.30
44477;DHT22;30180;44.788;10.366;2022-10-15T10:02:32;20.50;70.30
44477;DHT22;30180;44.788;10.366;2022-10-15T10:05:17;20.50;70.30
44477;DHT22;30180;44.788;10.366;2022-10-15T10:07:46;20.50;70.30
44477;DHT22;30180;44.788;10.366;2022-10-15T10:10:24;20.50;70.30
44477;DHT22;30180;44.788;10.366;2022-10-15T10:12:54;20.50;70.20
44477;DHT22;30180;44.788;10.366;2022-10-15T10:15:30;20.50;70.30
44477;DHT22;30180;44.788;10.366;2022-10-15T10:18:00;20.50;70.30
44477;DHT22;30180;44.788;10.366;2022-10-15T10:20:32;20.50;70.30
44477;DHT22;30180;44.788;10.366;2022-10-15T10:23:02;20.50;70.20
44477;DHT22;30180;44.788;10.366;2022-10-15T10:25:36;20.50;70.20
44477;DHT22;30180;44.788;10.366;2022-10-15T10:28:15;20.50;70.30
44477;DHT22;30180;44.788;10.366;2022-10-15T10:30:52;20.50;70.30
44477;DHT22;30180;44.788;10.366;2022-10-15T10:33:30;20.50;70.30
44477;DHT22;30180;44.788;10.366;2022-10-15T10:35:58;20.50;70.30
44477;DHT22;30180;44.788;10.366;2022-10-15T10:38:30;20.50;70.30
44477;DHT22;30180;44.788;10.366;2022-10-15T10:41:04;20.50;70.30
44477;DHT22;30180;44.788;10.366;2022-10-15T10:43:35;20.50;70.30
44477;DHT22;30180;44.788;10.366;2022-10-15T10:46:16;20.50;70.30
44477;DHT22;30180;44.788;10.366;2022-10-15T10:48:47;20.50;70.30
44477;DHT22;30180;44.788;10.366;2022-10-15T10:51:17;20.50;70.30
44477;DHT22;30180;44.788;10.366;2022-10-15T10:53:50;20.50;70.30
44477;DHT22;30180;44.788;10.366;2022-10-15T10:56:22;20.60;70.30
44477;DHT22;30180;44.788;10.366;2022-10-15T10:58:57;20.60;70.30
44477;DHT22;30180;44.788;10.366;2022-10-15T11:01:26;20.50;70.30
44477;DHT22;30180;44.788;10.366;2022-10-15T11:03:55;20.50;70.30
44477;DHT22;30180;44.788;10.366;2022-10-15T11:06:44;20.50;70.30
44477;DHT22;30180;44.788;10.366;2022-10-15T11:09:39;20.50;70.30
44477;DHT22;30180;44.788;10.366;2022-10-15T11:12:27;20.50;70.30
44477;DHT22;30180;44.788;10.366;2022-10-15T11:15:02;20.50;70.30
44477;DHT22;30180;44.788;10.366;2022-10-15T11:17:46;20.50;70.30
44477;DHT22;30180;44.788;10.366;2022-10-15T11:20:21;20.50;70.40
44477;DHT22;30180;44.788;10.366;2022-10-15T11:23:19;20.50;70.40
44477;DHT22;30180;44.788;10.366;2022-10-15T11:25:57;20.60;70.50
44477;DHT22;30180;44.788;10.366;2022-10-15T11:28:41;20.60;70.60
44477;DHT22;30180;44.788;10.366;2022-10-15T11:31:16;20.60;70.60
44477;DHT22;30180;44.788;10.366;2022-10-15T11:34:06;20.60;70.60
44477;DHT22;30180;44.788;10.366;2022-10-15T11:36:43;20.60;70.60
44477;DHT22;30180;44.788;10.366;2022-10-15T11:39:24;20.60;70.60
44477;DHT22;30180;44.788;10.366;2022-10-15T11:42:01;20.70;70.70
44477;DHT22;30180;44.788;10.366;2022-10-15T11:44:47;20.70;70.70
44477;DHT22;30180;44.788;10.366;2022-10-15T11:47:29;20.70;70.80
44477;DHT22;30180;44.788;10.366;2022-10-15T11:50:09;20.70;70.80
44477;DHT22;30180;44.788;10.366;2022-10-15T11:52:52;20.80;70.90
44477;DHT22;30180;44.788;10.366;2022-10-15T11:55:29;20.80;70.90
44477;DHT22;30180;44.788;10.366;2022-10-15T11:58:00;20.80;70.90
44477;DHT22;30180;44.788;10.366;2022-10-15T12:00:34;20.80;71.00
44477;DHT22;30180;44.788;10.366;2022-10-15T12:03:08;20.80;70.90
44477;DHT22;30180;44.788;10.366;2022-10-15T12:05:44;20.80;71.00
44477;DHT22;30180;44.788;10.366;2022-10-15T12:08:14;20.90;71.00
